createdAt,value
2023-05-18T00:09:43.345Z,7.70
2023-05-18T00:24:49.731Z,7.41
2023-05-18T00:39:55.548Z,7.04
2023-05-18T00:55:01.823Z,6.84
2023-05-18T01:10:08.806Z,6.64
2023-05-18T01:25:24.094Z,6.55
2023-05-18T01:40:32.648Z,6.50
2023-05-18T01:55:39.623Z,6.27
2023-05-18T02:10:45.283Z,5.93
2023-05-18T02:25:51.165Z,5.76
2023-05-18T02:40:56.929Z,5.53
2023-05-18T02:56:04.108Z,5.50
2023-05-18T03:11:09.919Z,5.35
2023-05-18T03:26:16.985Z,5.08
2023-05-18T03:41:23.463Z,5.01
2023-05-18T03:56:31.486Z,4.96
2023-05-18T04:11:37.324Z,5.07
2023-05-18T04:26:44.004Z,5.42
2023-05-18T04:41:49.706Z,5.94
2023-05-18T04:56:55.540Z,6.16
2023-05-18T05:12:01.396Z,6.59
2023-05-18T05:27:07.800Z,7.65
2023-05-18T05:42:13.470Z,8.41
2023-05-18T05:57:19.167Z,9.41
2023-05-18T06:12:24.899Z,10.21
2023-05-18T06:27:30.586Z,11.34
2023-05-18T06:42:36.727Z,12.87
2023-05-18T06:57:42.732Z,13.67
2023-05-18T07:12:48.323Z,14.13
2023-05-18T07:27:55.882Z,15.65
2023-05-18T07:43:01.553Z,15.67
2023-05-18T07:58:07.111Z,15.73
2023-05-18T08:13:12.726Z,17.79
2023-05-18T08:28:18.534Z,17.01
2023-05-18T08:43:33.655Z,17.45
2023-05-18T08:58:46.134Z,17.29
2023-05-18T09:13:52.405Z,19.17
2023-05-18T09:28:59.714Z,18.12
2023-05-18T09:44:09.779Z,18.67
2023-05-18T09:59:17.080Z,19.55
2023-05-18T10:14:31.582Z,19.45
2023-05-18T10:29:38.163Z,19.39
2023-05-18T10:44:44.597Z,21.04
2023-05-18T10:59:50.448Z,19.68
2023-05-18T11:14:58.010Z,20.40
2023-05-18T11:30:14.729Z,18.88
2023-05-18T11:45:22.189Z,19.23
2023-05-18T12:00:28.350Z,18.51
2023-05-18T12:15:35.293Z,18.97
2023-05-18T12:30:41.311Z,18.89
2023-05-18T12:45:47.867Z,19.18
2023-05-18T13:00:53.620Z,19.39
2023-05-18T13:15:59.991Z,19.73
2023-05-18T13:31:05.952Z,18.96
2023-05-18T13:46:11.834Z,18.94
2023-05-18T14:01:18.169Z,18.21
2023-05-18T14:16:24.102Z,18.40
2023-05-18T14:31:30.046Z,18.63
2023-05-18T14:46:35.939Z,19.25
2023-05-18T15:01:41.871Z,18.37
2023-05-18T15:16:47.748Z,18.25
2023-05-18T15:31:55.169Z,17.88
2023-05-18T15:47:00.890Z,17.62
2023-05-18T16:02:06.672Z,17.24
2023-05-18T16:17:12.439Z,17.23
2023-05-18T16:32:19.118Z,16.87
2023-05-18T16:47:24.867Z,16.63
2023-05-18T17:02:30.913Z,16.58
2023-05-18T17:17:36.970Z,16.26
2023-05-18T17:32:44.738Z,16.22
2023-05-18T17:47:50.364Z,16.03
2023-05-18T18:02:56.616Z,15.80
2023-05-18T18:18:02.359Z,15.77
2023-05-18T18:33:08.101Z,15.60
2023-05-18T18:48:13.847Z,15.41
2023-05-18T19:03:19.524Z,15.23
2023-05-18T19:18:25.042Z,15.18
2023-05-18T19:33:30.607Z,15.03
2023-05-18T19:48:36.255Z,14.93
2023-05-18T20:03:43.679Z,14.82
2023-05-18T20:18:49.496Z,14.73
2023-05-18T20:33:57.802Z,14.60
2023-05-18T20:49:04.437Z,14.54
2023-05-18T21:04:12.462Z,14.47
2023-05-18T21:19:19.145Z,14.38
2023-05-18T21:34:24.902Z,14.27
2023-05-18T21:49:30.556Z,14.23
2023-05-18T22:04:36.180Z,14.17
2023-05-18T22:19:42.839Z,14.10
2023-05-18T22:34:48.516Z,14.09
2023-05-18T22:49:54.074Z,13.96
2023-05-18T23:05:01.483Z,13.91
2023-05-18T23:20:08.510Z,13.83
2023-05-18T23:35:16.069Z,13.68
2023-05-18T23:50:23.251Z,13.68
